Time;durP1;ratioP1;P1;durP2;ratioP2;P2;SDS_P1;SDS_P2;PMS_P1;PMS_P2;Temp;Humidity;BMP_temperature;BMP_pressure;BME280_temperature;BME280_humidity;BME280_pressure;Samples;Min_cycle;Max_cycle;Signal;HPM_P1;HPM_P2
2021/01/23 00:02:05;;;;;;;391.63;356.23;;;;;;;;;;5031365;28;20528;-70
2021/01/23 00:04:31;;;;;;;349.10;315.35;;;;;;;;;;5023349;28;20033;-70
2021/01/23 00:06:57;;;;;;;1485.55;999.90;;;;;;;;;;5032013;28;20033;-70
2021/01/23 00:09:24;;;;;;;362.75;328.52;;;;;;;;;;5030843;28;20032;-70
2021/01/23 00:11:51;;;;;;;356.08;322.05;;;;;;;;;;5021206;28;20026;-70
2021/01/23 00:14:17;;;;;;;405.85;369.52;;;;;;;;;;5020293;28;20025;-70
2021/01/23 00:16:43;;;;;;;358.38;324.33;;;;;;;;;;5024597;28;20082;-70
2021/01/23 00:19:09;;;;;;;369.10;334.60;;;;;;;;;;5030987;28;20033;-71
2021/01/23 00:21:36;;;;;;;363.60;329.35;;;;;;;;;;5038828;28;20116;-71
2021/01/23 00:24:02;;;;;;;355.75;321.33;;;;;;;;;;5037611;28;20492;-71
2021/01/23 00:26:28;;;;;;;1999.10;999.90;;;;;;;;;;5036348;28;20022;-70
2021/01/23 00:28:54;;;;;;;1990.75;999.90;;;;;;;;;;5035480;28;20104;-70
2021/01/23 00:31:20;;;;;;;390.83;354.65;;;;;;;;;;5037688;28;20026;-70
2021/01/23 00:33:46;;;;;;;401.40;365.30;;;;;;;;;;5036621;28;20037;-70
2021/01/23 00:36:12;;;;;;;385.08;349.98;;;;;;;;;;5014695;28;20025;-70
2021/01/23 00:38:38;;;;;;;1990.22;999.90;;;;;;;;;;5035758;28;20458;-70
2021/01/23 00:41:04;;;;;;;1988.07;999.90;;;;;;;;;;5036421;28;20116;-71
2021/01/23 00:43:30;;;;;;;1174.55;997.53;;;;;;;;;;5036802;28;20021;-70
2021/01/23 00:45:56;;;;;;;381.67;346.45;;;;;;;;;;5031237;28;20573;-70
2021/01/23 00:48:22;;;;;;;1498.28;999.90;;;;;;;;;;5033085;28;20104;-70
2021/01/23 00:50:48;;;;;;;349.15;315.30;;;;;;;;;;5013814;28;20053;-71
2021/01/23 00:53:14;;;;;;;389.67;354.17;;;;;;;;;;5035307;28;20033;-71
2021/01/23 00:55:40;;;;;;;390.67;355.23;;;;;;;;;;5029880;28;20052;-70
2021/01/23 00:58:06;;;;;;;1502.28;999.90;;;;;;;;;;5023034;28;20112;-70
2021/01/23 01:00:32;;;;;;;372.00;337.38;;;;;;;;;;5033356;28;20432;-70
2021/01/23 01:02:58;;;;;;;1999.90;999.90;;;;;;;;;;5035012;28;20029;-71
2021/01/23 01:05:24;;;;;;;1053.88;940.88;;;;;;;;;;5033758;28;20083;-70
2021/01/23 01:07:50;;;;;;;346.42;312.50;;;;;;;;;;5031657;28;20024;-70
2021/01/23 01:10:16;;;;;;;1070.43;953.85;;;;;;;;;;5034114;28;20048;-70
2021/01/23 01:12:42;;;;;;;383.27;348.13;;;;;;;;;;5030397;28;20510;-71
2021/01/23 01:15:08;;;;;;;369.85;335.33;;;;;;;;;;5030082;28;20034;-70
2021/01/23 01:17:34;;;;;;;366.73;332.20;;;;;;;;;;5016360;28;20377;-70
2021/01/23 01:20:00;;;;;;;365.90;331.35;;;;;;;;;;5030513;28;20087;-70
2021/01/23 01:22:28;;;;;;;392.98;357.27;;;;;;;;;;5034180;28;20033;-70
2021/01/23 01:24:54;;;;;;;348.23;314.52;;;;;;;;;;5031713;28;20073;-70
2021/01/23 01:27:20;;;;;;;499.27;450.08;;;;;;;;;;5030846;28;20021;-70
2021/01/23 01:29:46;;;;;;;366.60;332.08;;;;;;;;;;5030286;28;20040;-70
2021/01/23 01:32:12;;;;;;;404.45;368.33;;;;;;;;;;5033781;28;20030;-70
2021/01/23 01:34:38;;;;;;;1998.47;999.90;;;;;;;;;;5031942;28;20075;-71
2021/01/23 01:37:04;;;;;;;1493.57;999.90;;;;;;;;;;5015735;28;20061;-70
2021/01/23 01:39:30;;;;;;;391.73;356.05;;;;;;;;;;5029653;28;20045;-70
2021/01/23 01:41:56;;;;;;;352.30;318.25;;;;;;;;;;5031781;28;20034;-70
2021/01/23 01:44:22;;;;;;;1185.40;999.90;;;;;;;;;;5029825;28;20037;-70
2021/01/23 01:46:48;;;;;;;385.38;349.70;;;;;;;;;;5029327;28;20038;-70
2021/01/23 01:49:15;;;;;;;368.77;334.27;;;;;;;;;;5029325;28;20030;-70
2021/01/23 01:51:41;;;;;;;362.90;328.65;;;;;;;;;;5022471;28;20022;-70
2021/01/23 01:54:07;;;;;;;416.23;379.85;;;;;;;;;;5014712;28;20022;-70
2021/01/23 01:56:33;;;;;;;1999.90;999.90;;;;;;;;;;5014644;28;20458;-70
2021/01/23 01:58:59;;;;;;;1999.90;999.90;;;;;;;;;;5031670;28;20056;-70
2021/01/23 02:01:25;;;;;;;416.42;376.00;;;;;;;;;;5033954;28;20025;-70
2021/01/23 02:03:55;;;;;;;380.27;345.15;;;;;;;;;;5029555;28;20092;-71
2021/01/23 02:06:37;;;;;;;1094.93;969.53;;;;;;;;;;5026241;28;20060;-70
2021/01/23 02:09:03;;;;;;;352.10;318.23;;;;;;;;;;5033061;28;20036;-70
2021/01/23 02:11:41;;;;;;;375.38;340.42;;;;;;;;;;5033920;28;20030;-70
2021/01/23 02:14:14;;;;;;;396.15;360.48;;;;;;;;;;5016201;28;20032;-71
2021/01/23 02:16:51;;;;;;;377.38;342.50;;;;;;;;;;5006223;28;20092;-70
2021/01/23 02:19:35;;;;;;;369.95;335.08;;;;;;;;;;5013616;28;20398;-70
2021/01/23 02:22:01;;;;;;;378.70;343.85;;;;;;;;;;5012509;28;20041;-70
2021/01/23 02:24:27;;;;;;;347.40;313.92;;;;;;;;;;5027364;28;20067;-70
2021/01/23 02:27:05;;;;;;;377.33;342.60;;;;;;;;;;5014395;28;20072;-70
2021/01/23 02:29:37;;;;;;;369.33;334.92;;;;;;;;;;5014185;28;20054;-70
2021/01/23 02:32:03;;;;;;;326.25;293.35;;;;;;;;;;4996628;28;20077;-70
2021/01/23 02:34:30;;;;;;;346.48;312.70;;;;;;;;;;5017566;28;20072;-70
2021/01/23 02:36:58;;;;;;;364.08;330.05;;;;;;;;;;5033903;28;20029;-70
2021/01/23 02:39:25;;;;;;;383.77;348.55;;;;;;;;;;5033667;28;20516;-70
2021/01/23 02:41:51;;;;;;;356.92;322.75;;;;;;;;;;5024038;28;20382;-70
2021/01/23 02:44:17;;;;;;;407.40;371.60;;;;;;;;;;5027346;28;20079;-70
2021/01/23 02:46:44;;;;;;;356.23;322.08;;;;;;;;;;5015257;28;20026;-70
2021/01/23 02:49:10;;;;;;;1998.22;999.90;;;;;;;;;;5014598;28;20025;-70
2021/01/23 02:51:51;;;;;;;372.30;337.10;;;;;;;;;;5033322;28;20112;-70
2021/01/23 02:54:26;;;;;;;1999.90;999.90;;;;;;;;;;5031313;28;20069;-70
2021/01/23 02:56:54;;;;;;;686.67;615.20;;;;;;;;;;5024253;28;20108;-70
2021/01/23 02:59:20;;;;;;;380.05;345.00;;;;;;;;;;5032983;28;20053;-70
2021/01/23 03:01:46;;;;;;;379.70;344.63;;;;;;;;;;5028791;28;20543;-70
2021/01/23 03:04:13;;;;;;;372.25;337.58;;;;;;;;;;5028071;28;20520;-70
2021/01/23 03:06:40;;;;;;;370.77;336.38;;;;;;;;;;5032668;28;20038;-70
2021/01/23 03:09:19;;;;;;;380.67;346.02;;;;;;;;;;5033365;28;20527;-70
2021/01/23 03:11:45;;;;;;;1495.90;999.90;;;;;;;;;;5032538;28;20029;-70
2021/01/23 03:14:11;;;;;;;364.15;329.67;;;;;;;;;;5030688;28;20033;-70
2021/01/23 03:16:37;;;;;;;381.95;346.80;;;;;;;;;;5022986;28;20393;-70
2021/01/23 03:19:04;;;;;;;351.23;317.43;;;;;;;;;;5026465;28;20041;-71
2021/01/23 03:21:30;;;;;;;371.77;337.20;;;;;;;;;;5029484;28;20013;-70
2021/01/23 03:23:56;;;;;;;1999.50;999.90;;;;;;;;;;5030548;28;20508;-70
2021/01/23 03:26:23;;;;;;;1997.63;999.90;;;;;;;;;;5018953;28;20041;-70
2021/01/23 03:28:49;;;;;;;362.57;328.20;;;;;;;;;;5017387;28;20029;-70
2021/01/23 03:31:15;;;;;;;373.27;338.60;;;;;;;;;;5032737;28;20748;-70
2021/01/23 03:33:40;;;;;;;1476.35;999.90;;;;;;;;;;5019458;28;20033;-70
2021/01/23 03:36:07;;;;;;;366.30;331.85;;;;;;;;;;5033034;28;20428;-70
2021/01/23 03:38:33;;;;;;;370.50;335.80;;;;;;;;;;5016718;28;20052;-70
2021/01/23 03:40:59;;;;;;;1496.85;999.90;;;;;;;;;;5017023;28;20029;-70
2021/01/23 03:43:24;;;;;;;381.98;347.00;;;;;;;;;;5040174;28;20041;-70
2021/01/23 03:45:50;;;;;;;328.10;295.23;;;;;;;;;;5039808;28;20029;-70
2021/01/23 03:48:16;;;;;;;1494.93;999.90;;;;;;;;;;5035634;28;20039;-70
2021/01/23 03:50:42;;;;;;;364.92;330.67;;;;;;;;;;5041199;28;20080;-70
2021/01/23 03:53:08;;;;;;;970.88;867.88;;;;;;;;;;5025158;28;20029;-70
2021/01/23 03:55:34;;;;;;;368.38;333.95;;;;;;;;;;5011381;28;20080;-70
2021/01/23 03:58:00;;;;;;;1497.07;999.90;;;;;;;;;;5028319;28;20069;-70
2021/01/23 04:00:26;;;;;;;367.98;333.73;;;;;;;;;;5032584;28;20546;-70
2021/01/23 04:02:52;;;;;;;383.40;348.08;;;;;;;;;;5031527;28;20428;-70
2021/01/23 04:05:18;;;;;;;371.05;336.40;;;;;;;;;;5032789;28;20088;-70
2021/01/23 04:07:44;;;;;;;344.13;310.75;;;;;;;;;;5032602;28;20028;-70
2021/01/23 04:10:10;;;;;;;1491.13;999.90;;;;;;;;;;5032734;28;20080;-70
2021/01/23 04:12:36;;;;;;;988.75;884.53;;;;;;;;;;5003853;28;20030;-70
2021/01/23 04:15:03;;;;;;;351.17;317.50;;;;;;;;;;5022745;28;20021;-70
2021/01/23 04:17:29;;;;;;;1498.45;999.90;;;;;;;;;;5032488;28;20434;-70
2021/01/23 04:19:55;;;;;;;356.42;322.60;;;;;;;;;;5023530;28;20085;-70
2021/01/23 04:22:21;;;;;;;358.48;324.33;;;;;;;;;;5026404;28;20065;-70
2021/01/23 04:24:47;;;;;;;316.05;283.73;;;;;;;;;;5020908;28;20081;-70
2021/01/23 04:27:13;;;;;;;337.38;304.17;;;;;;;;;;5014131;28;20033;-70
2021/01/23 04:29:39;;;;;;;366.65;332.48;;;;;;;;;;5031511;28;20076;-70
2021/01/23 04:32:05;;;;;;;1042.50;931.78;;;;;;;;;;5029411;28;20065;-70
2021/01/23 04:34:31;;;;;;;366.83;332.60;;;;;;;;;;5012736;28;20401;-70
2021/01/23 04:36:57;;;;;;;345.58;312.20;;;;;;;;;;5027906;28;20025;-70
2021/01/23 04:39:23;;;;;;;361.73;327.75;;;;;;;;;;5031921;28;20037;-69
2021/01/23 04:41:48;;;;;;;324.05;291.67;;;;;;;;;;5031686;28;20025;-70
2021/01/23 04:44:14;;;;;;;342.35;309.27;;;;;;;;;;5032422;28;20022;-70
2021/01/23 04:46:40;;;;;;;341.27;307.75;;;;;;;;;;5017648;28;20374;-70
2021/01/23 04:49:06;;;;;;;1493.85;999.90;;;;;;;;;;5012481;28;20037;-70
2021/01/23 04:51:33;;;;;;;359.77;325.83;;;;;;;;;;5022632;28;20025;-71
2021/01/23 04:53:59;;;;;;;322.67;290.17;;;;;;;;;;5031700;28;20032;-70
2021/01/23 04:56:28;;;;;;;378.83;344.20;;;;;;;;;;5032044;28;20272;-70
2021/01/23 04:58:54;;;;;;;322.25;289.80;;;;;;;;;;5020921;28;20042;-70
2021/01/23 05:01:20;;;;;;;361.45;326.98;;;;;;;;;;5031804;28;20473;-70
2021/01/23 05:03:53;;;;;;;1999.90;999.90;;;;;;;;;;5029999;28;20087;-70
2021/01/23 05:06:19;;;;;;;381.85;346.52;;;;;;;;;;5032897;28;20025;-70
2021/01/23 05:08:45;;;;;;;337.08;303.92;;;;;;;;;;5016597;28;20037;-70
2021/01/23 05:11:11;;;;;;;323.98;291.33;;;;;;;;;;5027400;28;20091;-70
2021/01/23 05:13:37;;;;;;;336.55;303.73;;;;;;;;;;5034992;28;20030;-70
2021/01/23 05:16:03;;;;;;;345.70;312.00;;;;;;;;;;5035020;28;20025;-71
2021/01/23 05:18:29;;;;;;;1002.85;895.42;;;;;;;;;;5025815;28;20040;-71
2021/01/23 05:20:55;;;;;;;369.80;335.33;;;;;;;;;;5030103;28;20473;-70
2021/01/23 05:23:31;;;;;;;311.08;279.13;;;;;;;;;;5029634;28;20473;-70
2021/01/23 05:26:00;;;;;;;370.20;335.83;;;;;;;;;;5034710;28;20029;-70
2021/01/23 05:28:27;;;;;;;1992.70;999.90;;;;;;;;;;5033258;28;20033;-70
2021/01/23 05:30:53;;;;;;;363.85;329.30;;;;;;;;;;5034826;28;20049;-70
2021/01/23 05:33:23;;;;;;;337.60;304.73;;;;;;;;;;5029138;28;20034;-70
2021/01/23 05:35:57;;;;;;;1992.20;999.90;;;;;;;;;;5003498;28;20025;-70
2021/01/23 05:38:33;;;;;;;323.67;290.67;;;;;;;;;;5015447;28;20052;-70
2021/01/23 05:41:01;;;;;;;1495.93;999.90;;;;;;;;;;5020017;28;20021;-70
2021/01/23 05:43:55;;;;;;;370.13;335.90;;;;;;;;;;5033265;28;20029;-71
2021/01/23 05:46:26;;;;;;;351.23;317.45;;;;;;;;;;5041103;28;20087;-70
2021/01/23 05:48:53;;;;;;;334.40;301.35;;;;;;;;;;5034331;28;20029;-70
2021/01/23 05:51:19;;;;;;;405.33;363.48;;;;;;;;;;5048057;28;20097;-70
2021/01/23 05:53:46;;;;;;;315.38;282.98;;;;;;;;;;5037391;28;20049;-70
2021/01/23 05:56:12;;;;;;;378.33;343.52;;;;;;;;;;5026658;28;20103;-70
2021/01/23 05:58:39;;;;;;;353.70;319.83;;;;;;;;;;5020614;28;20067;-70
2021/01/23 06:01:08;;;;;;;357.02;323.08;;;;;;;;;;5016498;28;20083;-70
2021/01/23 06:03:41;;;;;;;323.15;290.58;;;;;;;;;;5020898;28;20029;-70
2021/01/23 06:06:07;;;;;;;371.05;336.50;;;;;;;;;;5034195;28;20109;-70
2021/01/23 06:08:52;;;;;;;1237.20;999.90;;;;;;;;;;5033718;28;20164;-70
2021/01/23 06:11:18;;;;;;;350.23;316.30;;;;;;;;;;5003624;28;20021;-70
2021/01/23 06:14:02;;;;;;;1324.47;999.90;;;;;;;;;;5033275;28;20033;-70
2021/01/23 06:16:31;;;;;;;1999.90;999.90;;;;;;;;;;5022947;28;20032;-70
2021/01/23 06:19:07;;;;;;;369.63;334.98;;;;;;;;;;5033027;28;20041;-70
2021/01/23 06:21:45;;;;;;;378.95;344.38;;;;;;;;;;5033600;28;20021;-70
2021/01/23 06:24:12;;;;;;;376.80;341.98;;;;;;;;;;5032087;28;20401;-70
2021/01/23 06:26:53;;;;;;;378.10;342.90;;;;;;;;;;5013425;28;20045;-70
2021/01/23 06:29:35;;;;;;;351.35;317.75;;;;;;;;;;5020954;28;20033;-71
2021/01/23 06:32:13;;;;;;;353.95;319.90;;;;;;;;;;5031266;28;20060;-70
2021/01/23 06:34:45;;;;;;;358.88;325.27;;;;;;;;;;5021802;28;20030;-70
2021/01/23 06:37:30;;;;;;;330.52;297.90;;;;;;;;;;5030383;28;20448;-69
2021/01/23 06:39:55;;;;;;;1999.68;999.90;;;;;;;;;;5033346;28;20073;-71
2021/01/23 06:42:22;;;;;;;798.65;713.28;;;;;;;;;;5025371;28;20045;-70
2021/01/23 06:44:48;;;;;;;357.13;323.23;;;;;;;;;;5015163;28;20069;-70
2021/01/23 06:47:14;;;;;;;386.40;351.45;;;;;;;;;;5020585;28;20057;-70
2021/01/23 06:49:43;;;;;;;354.25;320.45;;;;;;;;;;5033741;28;20021;-70
2021/01/23 06:52:10;;;;;;;368.15;333.85;;;;;;;;;;5033124;28;20116;-70
2021/01/23 06:54:36;;;;;;;325.90;293.25;;;;;;;;;;5033368;28;20389;-70
2021/01/23 06:57:03;;;;;;;1994.63;999.90;;;;;;;;;;5032640;28;20426;-70
2021/01/23 06:59:37;;;;;;;1987.57;999.90;;;;;;;;;;5030907;28;20447;-70
2021/01/23 07:02:03;;;;;;;357.02;322.85;;;;;;;;;;5032473;28;20029;-71
2021/01/23 07:04:29;;;;;;;321.45;289.00;;;;;;;;;;5032226;28;20068;-71
2021/01/23 07:06:56;;;;;;;344.02;310.95;;;;;;;;;;5015068;28;20389;-71
2021/01/23 07:09:41;;;;;;;296.80;265.33;;;;;;;;;;5032764;28;20120;-71
2021/01/23 07:12:07;;;;;;;325.80;293.33;;;;;;;;;;5032684;28;20311;-70
2021/01/23 07:14:33;;;;;;;336.27;303.00;;;;;;;;;;5031799;28;20022;-71
2021/01/23 07:16:59;;;;;;;334.88;301.95;;;;;;;;;;5013951;28;20036;-70
2021/01/23 07:19:28;;;;;;;313.85;281.33;;;;;;;;;;5024394;28;20461;-70
2021/01/23 07:21:54;;;;;;;336.92;303.98;;;;;;;;;;5032628;28;20539;-71
2021/01/23 07:24:20;;;;;;;342.20;308.67;;;;;;;;;;5032620;28;20041;-71
2021/01/23 07:26:46;;;;;;;361.88;327.88;;;;;;;;;;5027862;28;20041;-71
2021/01/23 07:29:13;;;;;;;374.15;339.75;;;;;;;;;;5028930;28;20105;-71
2021/01/23 07:31:39;;;;;;;340.80;307.38;;;;;;;;;;5012160;28;20026;-70
2021/01/23 07:34:12;;;;;;;338.67;305.45;;;;;;;;;;4995003;28;20030;-70
2021/01/23 07:36:45;;;;;;;347.05;313.70;;;;;;;;;;5025609;28;20132;-70
2021/01/23 07:39:20;;;;;;;608.15;544.97;;;;;;;;;;5028692;28;20038;-71
2021/01/23 07:41:56;;;;;;;1999.90;999.90;;;;;;;;;;5034477;28;20108;-71
2021/01/23 07:44:25;;;;;;;708.75;632.80;;;;;;;;;;5045127;28;20030;-70
2021/01/23 07:46:51;;;;;;;343.92;310.23;;;;;;;;;;5021591;28;20037;-70
2021/01/23 07:49:20;;;;;;;394.45;358.75;;;;;;;;;;5027086;28;20112;-71
2021/01/23 07:51:46;;;;;;;342.10;308.75;;;;;;;;;;5025226;28;20583;-71
2021/01/23 07:54:13;;;;;;;317.33;284.98;;;;;;;;;;5033339;28;20034;-71
2021/01/23 07:56:50;;;;;;;461.42;413.70;;;;;;;;;;5030230;28;20425;-72
2021/01/23 07:59:16;;;;;;;1999.90;999.90;;;;;;;;;;5018364;28;20391;-71
2021/01/23 08:01:42;;;;;;;1996.70;999.90;;;;;;;;;;5030403;28;20082;-71
2021/01/23 08:04:28;;;;;;;371.13;336.10;;;;;;;;;;5031649;28;20029;-71
2021/01/23 08:07:12;;;;;;;344.95;311.30;;;;;;;;;;5027877;28;20840;-71
2021/01/23 08:09:38;;;;;;;328.50;295.40;;;;;;;;;;5012618;28;20030;-71
2021/01/23 08:12:14;;;;;;;1999.90;999.90;;;;;;;;;;5013855;28;20084;-72
2021/01/23 08:14:50;;;;;;;1989.88;999.90;;;;;;;;;;5014994;28;20034;-72
2021/01/23 08:17:16;;;;;;;1991.95;999.90;;;;;;;;;;5022574;28;20022;-72
2021/01/23 08:19:51;;;;;;;464.02;415.48;;;;;;;;;;5017658;28;20132;-71
2021/01/23 08:22:17;;;;;;;325.35;292.85;;;;;;;;;;5013498;28;20026;-71
2021/01/23 08:24:43;;;;;;;330.85;297.95;;;;;;;;;;5013125;28;20042;-71
2021/01/23 08:27:16;;;;;;;357.15;323.05;;;;;;;;;;5016563;28;20029;-72
2021/01/23 08:29:45;;;;;;;345.95;312.10;;;;;;;;;;5017309;28;20058;-70
2021/01/23 08:32:11;;;;;;;365.73;331.48;;;;;;;;;;5010186;28;20026;-70
2021/01/23 08:34:37;;;;;;;364.95;330.65;;;;;;;;;;5011657;28;20060;-71
2021/01/23 08:37:03;;;;;;;377.73;342.25;;;;;;;;;;5028334;28;20358;-70
2021/01/23 08:39:29;;;;;;;371.25;336.25;;;;;;;;;;5032001;28;20049;-70
2021/01/23 08:41:55;;;;;;;354.85;321.25;;;;;;;;;;5027248;28;20075;-71
2021/01/23 08:44:21;;;;;;;1492.90;999.90;;;;;;;;;;5016181;28;20156;-71
2021/01/23 08:46:47;;;;;;;367.00;332.73;;;;;;;;;;5018696;28;20060;-71
2021/01/23 08:49:13;;;;;;;1442.70;999.90;;;;;;;;;;5035528;28;20486;-70
2021/01/23 08:51:39;;;;;;;363.45;329.30;;;;;;;;;;5035697;28;20048;-70
2021/01/23 08:54:05;;;;;;;361.95;327.85;;;;;;;;;;5035983;28;20366;-70
2021/01/23 08:56:31;;;;;;;382.75;347.65;;;;;;;;;;5035171;28;20049;-70
2021/01/23 08:58:57;;;;;;;424.25;381.92;;;;;;;;;;5021569;28;20478;-70
2021/01/23 09:01:23;;;;;;;345.77;312.50;;;;;;;;;;5015566;28;20022;-70
2021/01/23 09:03:49;;;;;;;334.95;301.75;;;;;;;;;;5021104;28;20069;-70
2021/01/23 09:06:15;;;;;;;354.25;320.35;;;;;;;;;;5002822;28;20025;-70
2021/01/23 09:08:41;;;;;;;338.17;305.13;;;;;;;;;;5029955;28;20615;-70
2021/01/23 09:11:07;;;;;;;303.00;271.23;;;;;;;;;;5035330;28;20026;-69
2021/01/23 09:13:33;;;;;;;347.65;314.45;;;;;;;;;;5033901;28;20113;-70
2021/01/23 09:15:59;;;;;;;329.83;297.13;;;;;;;;;;5032269;28;20025;-70
2021/01/23 09:18:25;;;;;;;354.55;320.52;;;;;;;;;;5024629;28;20045;-70
2021/01/23 09:20:51;;;;;;;351.00;316.90;;;;;;;;;;5025745;28;20485;-70
2021/01/23 09:23:17;;;;;;;1999.90;999.90;;;;;;;;;;5033758;28;20139;-70
2021/01/23 09:25:43;;;;;;;752.33;672.40;;;;;;;;;;5034593;28;20026;-70
2021/01/23 09:28:10;;;;;;;390.67;355.33;;;;;;;;;;5026013;28;20397;-70
2021/01/23 09:30:36;;;;;;;389.80;354.27;;;;;;;;;;5034604;28;20029;-71
2021/01/23 09:33:03;;;;;;;1377.45;999.90;;;;;;;;;;5031701;28;20029;-70
2021/01/23 09:35:29;;;;;;;355.70;321.92;;;;;;;;;;5026618;28;20100;-70
2021/01/23 09:37:55;;;;;;;1995.43;999.90;;;;;;;;;;5015897;28;20110;-70
2021/01/23 09:40:21;;;;;;;858.72;768.45;;;;;;;;;;5034316;28;20084;-70
2021/01/23 09:42:47;;;;;;;338.35;305.30;;;;;;;;;;5028916;28;20075;-70
2021/01/23 09:45:13;;;;;;;334.10;301.23;;;;;;;;;;5028777;28;20047;-70
2021/01/23 09:47:39;;;;;;;365.75;331.35;;;;;;;;;;5030759;28;20014;-70
2021/01/23 09:50:05;;;;;;;311.45;279.10;;;;;;;;;;5042491;28;20595;-70
2021/01/23 09:52:31;;;;;;;1999.22;999.90;;;;;;;;;;5037396;28;20386;-71
2021/01/23 09:54:57;;;;;;;511.67;459.58;;;;;;;;;;5045456;28;20017;-71
2021/01/23 09:57:23;;;;;;;1999.90;999.90;;;;;;;;;;5044438;28;20044;-71
2021/01/23 09:59:49;;;;;;;1991.00;999.90;;;;;;;;;;5033467;28;20044;-72
2021/01/23 10:02:15;;;;;;;753.72;674.50;;;;;;;;;;5040154;28;20148;-71
2021/01/23 10:04:41;;;;;;;330.15;297.17;;;;;;;;;;5036835;28;20033;-71
2021/01/23 10:07:07;;;;;;;352.17;318.13;;;;;;;;;;5032719;28;20037;-71
2021/01/23 10:09:33;;;;;;;354.23;320.40;;;;;;;;;;5033008;28;20039;-71
2021/01/23 10:12:00;;;;;;;854.78;763.13;;;;;;;;;;5032192;28;20026;-72
2021/01/23 10:14:26;;;;;;;;;;;;;;;;;;5034554;28;20029;-72
2021/01/23 10:16:52;;;;;;;337.90;305.08;;;;;;;;;;5034271;28;19911;-71
2021/01/23 10:19:18;;;;;;;375.95;341.55;;;;;;;;;;5021544;28;20038;-70
2021/01/23 10:21:44;;;;;;;1498.60;999.90;;;;;;;;;;5032690;28;20108;-72
2021/01/23 10:24:10;;;;;;;334.02;300.90;;;;;;;;;;5033086;28;20108;-71
2021/01/23 10:26:36;;;;;;;350.20;316.33;;;;;;;;;;5032968;28;20025;-71
2021/01/23 10:29:02;;;;;;;356.00;322.17;;;;;;;;;;5033354;28;20037;-71
2021/01/23 10:31:28;;;;;;;389.52;354.30;;;;;;;;;;5014935;28;20453;-71
2021/01/23 10:33:54;;;;;;;318.23;285.77;;;;;;;;;;5031614;28;20112;-71
2021/01/23 10:36:20;;;;;;;1999.35;999.90;;;;;;;;;;5033172;28;20484;-71
2021/01/23 10:38:47;;;;;;;389.30;351.20;;;;;;;;;;5031761;28;20041;-71
2021/01/23 10:41:13;;;;;;;324.55;291.63;;;;;;;;;;5023865;28;20026;-71
2021/01/23 10:43:39;;;;;;;359.02;324.60;;;;;;;;;;5014287;28;20113;-71
2021/01/23 10:46:05;;;;;;;367.33;332.90;;;;;;;;;;5030716;28;20105;-71
2021/01/23 10:48:31;;;;;;;1999.90;999.90;;;;;;;;;;5029598;28;20367;-71
2021/01/23 10:50:57;;;;;;;359.15;324.58;;;;;;;;;;5032762;28;20033;-71
2021/01/23 10:53:23;;;;;;;370.33;335.48;;;;;;;;;;5023919;28;20040;-71
2021/01/23 10:55:49;;;;;;;350.27;316.30;;;;;;;;;;5032223;28;20025;-72
2021/01/23 10:58:14;;;;;;;369.52;335.13;;;;;;;;;;5027580;28;20041;-71
2021/01/23 11:00:40;;;;;;;331.15;298.00;;;;;;;;;;5025996;28;20553;-71
2021/01/23 11:03:06;;;;;;;338.98;305.83;;;;;;;;;;5019435;28;20033;-71
2021/01/23 11:05:33;;;;;;;335.00;301.20;;;;;;;;;;5030084;28;20103;-71
2021/01/23 11:07:59;;;;;;;718.10;640.70;;;;;;;;;;5034623;28;20026;-72
2021/01/23 11:10:25;;;;;;;1996.70;999.90;;;;;;;;;;5039898;28;20029;-71
2021/01/23 11:12:51;;;;;;;374.67;339.42;;;;;;;;;;5037924;28;20025;-71
2021/01/23 11:15:18;;;;;;;337.37;304.10;;;;;;;;;;5040605;28;20466;-71
2021/01/23 11:17:44;;;;;;;355.15;321.13;;;;;;;;;;5036776;28;20485;-71
2021/01/23 11:20:10;;;;;;;327.38;294.63;;;;;;;;;;5026241;28;20061;-71
2021/01/23 11:22:36;;;;;;;333.55;300.40;;;;;;;;;;5026943;28;20033;-71
2021/01/23 11:25:02;;;;;;;344.77;311.38;;;;;;;;;;5026793;28;20033;-71
2021/01/23 11:27:28;;;;;;;354.58;320.92;;;;;;;;;;5039347;28;20036;-71
2021/01/23 11:29:54;;;;;;;367.27;332.70;;;;;;;;;;5030537;28;20042;-71
2021/01/23 11:32:20;;;;;;;342.58;309.05;;;;;;;;;;5028928;28;20067;-71
2021/01/23 11:34:46;;;;;;;360.20;326.10;;;;;;;;;;5032821;28;20026;-70
2021/01/23 11:37:12;;;;;;;365.75;331.52;;;;;;;;;;5032797;28;20553;-71
2021/01/23 11:39:38;;;;;;;328.70;295.85;;;;;;;;;;5018292;28;20190;-72
2021/01/23 11:42:04;;;;;;;331.58;298.45;;;;;;;;;;5021570;28;20026;-72
2021/01/23 11:44:30;;;;;;;321.15;288.48;;;;;;;;;;5016917;28;20358;-69
2021/01/23 11:46:56;;;;;;;332.17;299.17;;;;;;;;;;5032875;28;20096;-69
2021/01/23 11:49:22;;;;;;;1990.95;999.90;;;;;;;;;;5031337;28;20389;-70
2021/01/23 11:51:48;;;;;;;333.42;300.05;;;;;;;;;;5031843;28;20026;-68
2021/01/23 13:45:41;;;;;;;256.92;203.63;;;;;;;;;;5098890;27;20366;-65
2021/01/23 13:48:08;;;;;;;253.18;196.80;;;;;;;;;;5080376;28;20078;-66
2021/01/23 13:50:34;;;;;;;260.10;218.27;;;;;;;;;;5074617;28;20029;-63
2021/01/23 13:53:00;;;;;;;255.07;209.23;;;;;;;;;;5066449;28;20032;-63
2021/01/23 13:55:26;;;;;;;257.65;217.73;;;;;;;;;;5080745;28;20035;-63
2021/01/23 13:57:52;;;;;;;262.80;225.38;;;;;;;;;;5081800;28;20043;-63
2021/01/23 14:00:19;;;;;;;263.40;221.10;;;;;;;;;;5078568;28;20083;-63
2021/01/23 14:02:45;;;;;;;1999.90;999.90;;;;;;;;;;5065046;28;20021;-64
2021/01/23 14:05:11;;;;;;;1999.90;999.90;;;;;;;;;;5068807;28;20463;-64
2021/01/23 14:07:37;;;;;;;1999.90;999.90;;;;;;;;;;5081375;28;20028;-63
2021/01/23 14:10:03;;;;;;;1999.90;999.90;;;;;;;;;;5067635;28;20029;-63
2021/01/23 14:12:29;;;;;;;1999.90;999.90;;;;;;;;;;5068817;28;20028;-63
2021/01/23 14:14:56;;;;;;;1999.90;999.90;;;;;;;;;;5069982;28;20182;-64
2021/01/23 14:17:22;;;;;;;1999.90;999.90;;;;;;;;;;5072347;28;20110;-63
2021/01/23 14:19:48;;;;;;;1999.90;999.90;;;;;;;;;;5066389;28;20472;-64
2021/01/23 14:22:14;;;;;;;268.08;238.70;;;;;;;;;;5075728;28;20025;-64
2021/01/23 14:24:40;;;;;;;279.35;249.65;;;;;;;;;;5069365;28;20183;-63
2021/01/23 14:27:06;;;;;;;275.38;245.65;;;;;;;;;;5078749;28;20024;-64
2021/01/23 14:29:32;;;;;;;271.00;241.88;;;;;;;;;;5077022;28;20037;-64
2021/01/23 14:31:58;;;;;;;1999.90;999.90;;;;;;;;;;5070745;28;20039;-63
2021/01/23 14:34:24;;;;;;;270.75;241.57;;;;;;;;;;5062236;28;20045;-64
2021/01/23 14:36:50;;;;;;;269.90;240.48;;;;;;;;;;5070155;28;20072;-64
2021/01/23 14:39:16;;;;;;;1999.90;999.90;;;;;;;;;;5076802;28;20057;-64
2021/01/23 14:41:42;;;;;;;264.20;234.50;;;;;;;;;;5073813;28;20039;-64
2021/01/23 14:44:08;;;;;;;1999.90;999.90;;;;;;;;;;5075369;28;20080;-64
2021/01/23 14:52:11;;;;;;;286.15;223.48;;;;;;;;;;5107078;27;20374;-67
2021/01/23 14:54:37;;;;;;;298.75;238.77;;;;;;;;;;5105897;28;20109;-66
2021/01/23 14:57:03;;;;;;;304.65;251.07;;;;;;;;;;5095029;28;20491;-65
2021/01/23 14:59:29;;;;;;;302.45;250.88;;;;;;;;;;5097754;28;20099;-67
2021/01/23 15:01:56;;;;;;;1999.90;999.90;;;;;;;;;;5098696;28;20454;-67
2021/01/23 15:04:22;;;;;;;1999.90;999.90;;;;;;;;;;5110838;28;20024;-67
2021/01/23 15:06:50;;;;;;;1999.90;999.90;;;;;;;;;;5110340;28;20476;-67
2021/01/23 15:09:16;;;;;;;;;;;;;;;;;;5116557;28;20036;-67
2021/01/23 15:11:42;;;;;;;289.13;231.90;;;;;;;;;;5107181;28;20011;-67
2021/01/23 15:14:08;;;;;;;1999.90;999.90;;;;;;;;;;5106530;28;21005;-67
2021/01/23 15:16:34;;;;;;;1999.90;999.90;;;;;;;;;;5100619;28;20372;-67
2021/01/23 15:19:00;;;;;;;301.30;265.42;;;;;;;;;;5104867;28;20073;-67
2021/01/23 15:21:26;;;;;;;299.88;253.15;;;;;;;;;;5106734;28;20096;-67
2021/01/23 15:23:52;;;;;;;1999.90;999.90;;;;;;;;;;5102806;28;20540;-67
2021/01/23 15:26:18;;;;;;;1999.90;999.90;;;;;;;;;;5100478;28;20027;-67
2021/01/23 15:28:44;;;;;;;1999.90;999.90;;;;;;;;;;5104966;28;20036;-67
2021/01/23 15:31:10;;;;;;;1999.90;999.90;;;;;;;;;;5095249;28;20032;-67
2021/01/23 15:33:36;;;;;;;1999.90;999.90;;;;;;;;;;5108777;28;20017;-68
2021/01/23 15:36:02;;;;;;;1999.90;999.90;;;;;;;;;;5103503;28;20031;-69
2021/01/23 15:38:28;;;;;;;298.02;254.77;;;;;;;;;;5113283;28;20141;-69
2021/01/23 15:40:54;;;;;;;1999.90;999.90;;;;;;;;;;5110080;28;20110;-68
2021/01/23 15:43:20;;;;;;;1999.90;999.90;;;;;;;;;;5105904;28;20033;-68
2021/01/23 15:45:47;;;;;;;1999.90;999.90;;;;;;;;;;5095932;28;20053;-68
2021/01/23 15:48:13;;;;;;;1999.90;999.90;;;;;;;;;;5108792;28;20029;-68